sensor_id;sensor_type;location;lat;lon;timestamp;temperature;humidity
28761;DHT22;15917;50.014;8.352;2024-01-27T00:01:15;6.90;99.90
28761;DHT22;15917;50.014;8.352;2024-01-27T00:03:41;6.90;99.90
28761;DHT22;15917;50.014;8.352;2024-01-27T00:06:07;6.80;99.90
28761;DHT22;15917;50.014;8.352;2024-01-27T00:08:32;6.80;99.90
28761;DHT22;15917;50.014;8.352;2024-01-27T00:10:58;6.90;99.90
28761;DHT22;15917;50.014;8.352;2024-01-27T00:13:23;6.80;99.90
28761;DHT22;15917;50.014;8.352;2024-01-27T00:15:50;6.80;99.90
28761;DHT22;15917;50.014;8.352;2024-01-27T00:18:17;6.80;99.90
28761;DHT22;15917;50.014;8.352;2024-01-27T00:20:42;6.80;99.90
28761;DHT22;15917;50.014;8.352;2024-01-27T00:23:08;6.70;99.90
28761;DHT22;15917;50.014;8.352;2024-01-27T00:25:34;6.70;99.90
28761;DHT22;15917;50.014;8.352;2024-01-27T00:27:59;6.70;99.90
28761;DHT22;15917;50.014;8.352;2024-01-27T00:30:25;6.70;99.90
28761;DHT22;15917;50.014;8.352;2024-01-27T00:32:51;6.60;99.90
28761;DHT22;15917;50.014;8.352;2024-01-27T00:35:17;6.60;99.90
28761;DHT22;15917;50.014;8.352;2024-01-27T00:37:43;6.60;99.90
28761;DHT22;15917;50.014;8.352;2024-01-27T00:40:09;6.50;99.90
28761;DHT22;15917;50.014;8.352;2024-01-27T00:42:36;6.50;99.90
28761;DHT22;15917;50.014;8.352;2024-01-27T00:45:02;6.50;99.90
28761;DHT22;15917;50.014;8.352;2024-01-27T00:47:28;6.40;99.90
28761;DHT22;15917;50.014;8.352;2024-01-27T00:49:54;6.40;99.90
28761;DHT22;15917;50.014;8.352;2024-01-27T00:52:20;6.40;99.90
28761;DHT22;15917;50.014;8.352;2024-01-27T00:54:45;6.30;99.90
28761;DHT22;15917;50.014;8.352;2024-01-27T00:57:11;6.30;99.90
28761;DHT22;15917;50.014;8.352;2024-01-27T00:59:38;6.30;99.90
28761;DHT22;15917;50.014;8.352;2024-01-27T01:02:04;6.30;99.90
28761;DHT22;15917;50.014;8.352;2024-01-27T01:04:30;6.40;99.90
28761;DHT22;15917;50.014;8.352;2024-01-27T01:06:56;6.30;99.90
28761;DHT22;15917;50.014;8.352;2024-01-27T01:09:22;6.30;99.90
28761;DHT22;15917;50.014;8.352;2024-01-27T01:11:47;6.30;99.90
28761;DHT22;15917;50.014;8.352;2024-01-27T01:14:13;6.30;99.90
28761;DHT22;15917;50.014;8.352;2024-01-27T01:16:39;6.30;99.90
28761;DHT22;15917;50.014;8.352;2024-01-27T01:19:05;6.20;99.90
28761;DHT22;15917;50.014;8.352;2024-01-27T01:21:31;6.20;99.90
28761;DHT22;15917;50.014;8.352;2024-01-27T01:23:56;6.20;99.90
28761;DHT22;15917;50.014;8.352;2024-01-27T01:26:22;6.20;99.90
28761;DHT22;15917;50.014;8.352;2024-01-27T01:28:47;6.20;99.90
28761;DHT22;15917;50.014;8.352;2024-01-27T01:31:13;6.10;99.90
28761;DHT22;15917;50.014;8.352;2024-01-27T01:33:39;6.00;99.90
28761;DHT22;15917;50.014;8.352;2024-01-27T01:36:04;6.00;99.90
28761;DHT22;15917;50.014;8.352;2024-01-27T01:38:30;5.90;99.90
28761;DHT22;15917;50.014;8.352;2024-01-27T01:40:56;5.80;99.90
28761;DHT22;15917;50.014;8.352;2024-01-27T01:43:21;5.80;99.90
28761;DHT22;15917;50.014;8.352;2024-01-27T01:45:47;5.80;99.90
28761;DHT22;15917;50.014;8.352;2024-01-27T01:48:13;5.70;99.90
28761;DHT22;15917;50.014;8.352;2024-01-27T01:50:39;5.70;99.90
28761;DHT22;15917;50.014;8.352;2024-01-27T01:53:05;5.70;99.90
28761;DHT22;15917;50.014;8.352;2024-01-27T01:55:31;5.60;99.90
28761;DHT22;15917;50.014;8.352;2024-01-27T01:57:57;5.60;99.90
28761;DHT22;15917;50.014;8.352;2024-01-27T02:00:22;5.60;99.90
28761;DHT22;15917;50.014;8.352;2024-01-27T02:02:48;5.60;99.90
28761;DHT22;15917;50.014;8.352;2024-01-27T02:05:13;5.60;99.90
28761;DHT22;15917;50.014;8.352;2024-01-27T02:07:39;5.60;99.90
28761;DHT22;15917;50.014;8.352;2024-01-27T02:10:07;5.50;99.90
28761;DHT22;15917;50.014;8.352;2024-01-27T02:12:37;5.50;99.90
28761;DHT22;15917;50.014;8.352;2024-01-27T02:15:03;5.50;99.90
28761;DHT22;15917;50.014;8.352;2024-01-27T02:17:29;5.50;99.90
28761;DHT22;15917;50.014;8.352;2024-01-27T02:19:55;5.50;99.90
28761;DHT22;15917;50.014;8.352;2024-01-27T02:22:20;5.40;99.90
28761;DHT22;15917;50.014;8.352;2024-01-27T02:24:46;5.40;99.90
28761;DHT22;15917;50.014;8.352;2024-01-27T02:27:12;5.50;99.90
28761;DHT22;15917;50.014;8.352;2024-01-27T02:29:38;5.40;99.90
28761;DHT22;15917;50.014;8.352;2024-01-27T02:32:04;5.40;99.90
28761;DHT22;15917;50.014;8.352;2024-01-27T02:34:29;5.40;99.90
28761;DHT22;15917;50.014;8.352;2024-01-27T02:36:55;5.30;99.90
28761;DHT22;15917;50.014;8.352;2024-01-27T02:39:21;5.30;99.90
28761;DHT22;15917;50.014;8.352;2024-01-27T02:41:47;5.30;99.90
28761;DHT22;15917;50.014;8.352;2024-01-27T02:44:12;5.30;99.90
28761;DHT22;15917;50.014;8.352;2024-01-27T02:46:38;5.20;99.90
28761;DHT22;15917;50.014;8.352;2024-01-27T02:49:04;5.20;99.90
28761;DHT22;15917;50.014;8.352;2024-01-27T02:51:29;5.20;99.90
28761;DHT22;15917;50.014;8.352;2024-01-27T02:53:55;5.20;99.90
28761;DHT22;15917;50.014;8.352;2024-01-27T02:56:20;5.20;99.90
28761;DHT22;15917;50.014;8.352;2024-01-27T02:58:46;5.10;99.90
28761;DHT22;15917;50.014;8.352;2024-01-27T03:01:11;5.10;99.90
28761;DHT22;15917;50.014;8.352;2024-01-27T03:03:37;5.10;99.90
28761;DHT22;15917;50.014;8.352;2024-01-27T03:06:03;5.10;99.90
28761;DHT22;15917;50.014;8.352;2024-01-27T03:08:29;5.10;99.90
28761;DHT22;15917;50.014;8.352;2024-01-27T03:10:55;5.00;99.90
28761;DHT22;15917;50.014;8.352;2024-01-27T03:13:21;5.00;99.90
28761;DHT22;15917;50.014;8.352;2024-01-27T03:15:47;5.00;99.90
28761;DHT22;15917;50.014;8.352;2024-01-27T03:18:12;5.00;99.90
28761;DHT22;15917;50.014;8.352;2024-01-27T03:20:38;5.00;99.90
28761;DHT22;15917;50.014;8.352;2024-01-27T03:23:03;4.90;99.90
28761;DHT22;15917;50.014;8.352;2024-01-27T03:25:29;5.00;99.90
28761;DHT22;15917;50.014;8.352;2024-01-27T03:27:55;5.00;99.90
28761;DHT22;15917;50.014;8.352;2024-01-27T03:30:24;5.00;99.90
28761;DHT22;15917;50.014;8.352;2024-01-27T03:32:50;4.90;99.90
28761;DHT22;15917;50.014;8.352;2024-01-27T03:35:15;4.90;99.90
28761;DHT22;15917;50.014;8.352;2024-01-27T03:37:41;4.90;99.90
28761;DHT22;15917;50.014;8.352;2024-01-27T03:40:07;5.00;99.90
28761;DHT22;15917;50.014;8.352;2024-01-27T03:42:33;4.90;99.90
28761;DHT22;15917;50.014;8.352;2024-01-27T03:44:58;4.80;99.90
28761;DHT22;15917;50.014;8.352;2024-01-27T03:47:24;4.80;99.90
28761;DHT22;15917;50.014;8.352;2024-01-27T03:49:49;4.80;99.90
28761;DHT22;15917;50.014;8.352;2024-01-27T03:52:15;4.70;99.90
28761;DHT22;15917;50.014;8.352;2024-01-27T03:54:41;4.70;99.90
28761;DHT22;15917;50.014;8.352;2024-01-27T03:57:06;4.70;99.90
28761;DHT22;15917;50.014;8.352;2024-01-27T03:59:32;4.60;99.90
28761;DHT22;15917;50.014;8.352;2024-01-27T04:01:57;4.70;99.90
28761;DHT22;15917;50.014;8.352;2024-01-27T04:04:23;4.60;99.90
28761;DHT22;15917;50.014;8.352;2024-01-27T04:06:49;4.60;99.90
28761;DHT22;15917;50.014;8.352;2024-01-27T04:09:15;4.50;99.90
28761;DHT22;15917;50.014;8.352;2024-01-27T04:11:41;4.50;99.90
28761;DHT22;15917;50.014;8.352;2024-01-27T04:14:07;4.40;99.90
28761;DHT22;15917;50.014;8.352;2024-01-27T04:16:33;4.30;99.90
28761;DHT22;15917;50.014;8.352;2024-01-27T04:18:59;4.20;99.90
28761;DHT22;15917;50.014;8.352;2024-01-27T04:21:24;4.20;99.90
28761;DHT22;15917;50.014;8.352;2024-01-27T04:23:50;4.10;99.90
28761;DHT22;15917;50.014;8.352;2024-01-27T04:26:15;4.10;99.90
28761;DHT22;15917;50.014;8.352;2024-01-27T04:28:41;4.00;99.90
28761;DHT22;15917;50.014;8.352;2024-01-27T04:31:07;4.00;99.90
28761;DHT22;15917;50.014;8.352;2024-01-27T04:33:33;4.00;99.90
28761;DHT22;15917;50.014;8.352;2024-01-27T04:35:58;3.90;99.90
28761;DHT22;15917;50.014;8.352;2024-01-27T04:38:24;3.90;99.90
28761;DHT22;15917;50.014;8.352;2024-01-27T04:40:51;3.90;99.90
28761;DHT22;15917;50.014;8.352;2024-01-27T04:43:17;3.90;99.90
28761;DHT22;15917;50.014;8.352;2024-01-27T04:45:44;3.90;99.90
28761;DHT22;15917;50.014;8.352;2024-01-27T04:48:09;3.90;99.90
28761;DHT22;15917;50.014;8.352;2024-01-27T04:50:35;3.80;99.90
28761;DHT22;15917;50.014;8.352;2024-01-27T04:53:01;3.80;99.90
28761;DHT22;15917;50.014;8.352;2024-01-27T04:55:27;3.70;99.90
28761;DHT22;15917;50.014;8.352;2024-01-27T04:57:53;3.70;99.90
28761;DHT22;15917;50.014;8.352;2024-01-27T05:00:19;3.70;99.90
28761;DHT22;15917;50.014;8.352;2024-01-27T05:02:45;3.70;99.90
28761;DHT22;15917;50.014;8.352;2024-01-27T05:05:11;3.70;99.90
28761;DHT22;15917;50.014;8.352;2024-01-27T05:07:40;3.70;99.90
28761;DHT22;15917;50.014;8.352;2024-01-27T05:10:06;3.60;99.90
28761;DHT22;15917;50.014;8.352;2024-01-27T05:12:31;3.60;99.90
28761;DHT22;15917;50.014;8.352;2024-01-27T05:14:57;3.60;99.90
28761;DHT22;15917;50.014;8.352;2024-01-27T05:17:23;3.50;99.90
28761;DHT22;15917;50.014;8.352;2024-01-27T05:19:50;3.50;99.90
28761;DHT22;15917;50.014;8.352;2024-01-27T05:22:15;3.50;99.90
28761;DHT22;15917;50.014;8.352;2024-01-27T05:24:41;3.50;99.90
28761;DHT22;15917;50.014;8.352;2024-01-27T05:27:07;3.50;99.90
28761;DHT22;15917;50.014;8.352;2024-01-27T05:29:32;3.40;99.90
28761;DHT22;15917;50.014;8.352;2024-01-27T05:31:58;3.40;99.90
28761;DHT22;15917;50.014;8.352;2024-01-27T05:34:23;3.40;99.90
28761;DHT22;15917;50.014;8.352;2024-01-27T05:36:49;3.40;99.90
28761;DHT22;15917;50.014;8.352;2024-01-27T05:39:15;3.40;99.90
28761;DHT22;15917;50.014;8.352;2024-01-27T05:41:40;3.40;99.90
28761;DHT22;15917;50.014;8.352;2024-01-27T05:44:06;3.30;99.90
28761;DHT22;15917;50.014;8.352;2024-01-27T05:46:32;3.30;99.90
28761;DHT22;15917;50.014;8.352;2024-01-27T05:48:57;3.30;99.90
28761;DHT22;15917;50.014;8.352;2024-01-27T05:51:28;3.30;99.90
28761;DHT22;15917;50.014;8.352;2024-01-27T05:53:53;3.30;99.90
28761;DHT22;15917;50.014;8.352;2024-01-27T05:56:19;3.20;99.90
28761;DHT22;15917;50.014;8.352;2024-01-27T05:58:48;3.20;99.90
28761;DHT22;15917;50.014;8.352;2024-01-27T06:01:13;3.10;99.90
28761;DHT22;15917;50.014;8.352;2024-01-27T06:03:43;3.10;99.90
28761;DHT22;15917;50.014;8.352;2024-01-27T06:06:09;3.10;99.90
28761;DHT22;15917;50.014;8.352;2024-01-27T06:08:34;3.10;99.90
28761;DHT22;15917;50.014;8.352;2024-01-27T06:11:00;3.20;99.90
28761;DHT22;15917;50.014;8.352;2024-01-27T06:13:26;3.10;99.90
28761;DHT22;15917;50.014;8.352;2024-01-27T06:15:52;3.20;99.90
28761;DHT22;15917;50.014;8.352;2024-01-27T06:18:17;3.20;99.90
28761;DHT22;15917;50.014;8.352;2024-01-27T06:20:44;3.10;99.90
28761;DHT22;15917;50.014;8.352;2024-01-27T06:23:09;3.10;99.90
28761;DHT22;15917;50.014;8.352;2024-01-27T06:25:35;3.00;99.90
28761;DHT22;15917;50.014;8.352;2024-01-27T06:28:01;3.00;99.90
28761;DHT22;15917;50.014;8.352;2024-01-27T06:30:26;3.00;99.90
28761;DHT22;15917;50.014;8.352;2024-01-27T06:32:52;2.90;99.90
28761;DHT22;15917;50.014;8.352;2024-01-27T06:35:17;2.90;99.90
28761;DHT22;15917;50.014;8.352;2024-01-27T06:37:43;3.00;99.90
28761;DHT22;15917;50.014;8.352;2024-01-27T06:40:09;3.00;99.90
28761;DHT22;15917;50.014;8.352;2024-01-27T06:42:35;2.90;99.90
28761;DHT22;15917;50.014;8.352;2024-01-27T06:45:01;2.90;99.90
28761;DHT22;15917;50.014;8.352;2024-01-27T06:47:27;3.00;99.90
28761;DHT22;15917;50.014;8.352;2024-01-27T06:49:52;3.00;99.90
28761;DHT22;15917;50.014;8.352;2024-01-27T06:52:18;3.00;99.90
28761;DHT22;15917;50.014;8.352;2024-01-27T06:54:43;3.00;99.90
28761;DHT22;15917;50.014;8.352;2024-01-27T06:57:23;3.00;99.90
28761;DHT22;15917;50.014;8.352;2024-01-27T06:59:50;3.00;99.90
28761;DHT22;15917;50.014;8.352;2024-01-27T07:02:25;3.00;99.90
28761;DHT22;15917;50.014;8.352;2024-01-27T07:04:56;2.90;99.90
28761;DHT22;15917;50.014;8.352;2024-01-27T07:07:25;2.90;99.90
28761;DHT22;15917;50.014;8.352;2024-01-27T07:09:51;2.80;99.90
28761;DHT22;15917;50.014;8.352;2024-01-27T07:12:17;2.90;99.90
28761;DHT22;15917;50.014;8.352;2024-01-27T07:14:42;2.90;99.90
28761;DHT22;15917;50.014;8.352;2024-01-27T07:17:08;3.00;99.90
28761;DHT22;15917;50.014;8.352;2024-01-27T07:19:33;3.00;99.90
28761;DHT22;15917;50.014;8.352;2024-01-27T07:21:59;3.00;99.90
28761;DHT22;15917;50.014;8.352;2024-01-27T07:24:26;3.00;99.90
28761;DHT22;15917;50.014;8.352;2024-01-27T07:26:51;3.00;99.90
28761;DHT22;15917;50.014;8.352;2024-01-27T07:29:17;3.00;99.90
28761;DHT22;15917;50.014;8.352;2024-01-27T07:31:43;3.10;99.90
28761;DHT22;15917;50.014;8.352;2024-01-27T07:34:08;3.10;99.90
28761;DHT22;15917;50.014;8.352;2024-01-27T07:36:34;3.00;99.90
28761;DHT22;15917;50.014;8.352;2024-01-27T07:38:59;3.00;99.90
28761;DHT22;15917;50.014;8.352;2024-01-27T07:41:25;3.10;99.90
28761;DHT22;15917;50.014;8.352;2024-01-27T07:43:51;3.20;99.90
28761;DHT22;15917;50.014;8.352;2024-01-27T07:46:17;3.40;99.90
28761;DHT22;15917;50.014;8.352;2024-01-27T07:48:47;3.70;99.90
28761;DHT22;15917;50.014;8.352;2024-01-27T07:51:13;4.10;99.90
28761;DHT22;15917;50.014;8.352;2024-01-27T07:53:39;4.50;99.90
28761;DHT22;15917;50.014;8.352;2024-01-27T07:56:05;5.00;99.90
28761;DHT22;15917;50.014;8.352;2024-01-27T07:58:32;5.40;99.90
28761;DHT22;15917;50.014;8.352;2024-01-27T08:00:57;5.70;99.90
28761;DHT22;15917;50.014;8.352;2024-01-27T08:03:23;6.00;99.90
28761;DHT22;15917;50.014;8.352;2024-01-27T08:05:49;6.10;99.90
28761;DHT22;15917;50.014;8.352;2024-01-27T08:08:14;6.20;99.90
28761;DHT22;15917;50.014;8.352;2024-01-27T08:10:40;6.20;99.90
28761;DHT22;15917;50.014;8.352;2024-01-27T08:13:06;6.30;99.90
28761;DHT22;15917;50.014;8.352;2024-01-27T08:15:32;6.40;99.90
28761;DHT22;15917;50.014;8.352;2024-01-27T08:17:58;6.50;99.90
28761;DHT22;15917;50.014;8.352;2024-01-27T08:20:23;6.70;99.90
28761;DHT22;15917;50.014;8.352;2024-01-27T08:22:49;6.80;99.90
28761;DHT22;15917;50.014;8.352;2024-01-27T08:25:17;6.80;99.90
28761;DHT22;15917;50.014;8.352;2024-01-27T08:27:43;6.90;99.90
28761;DHT22;15917;50.014;8.352;2024-01-27T08:30:09;7.00;99.90
28761;DHT22;15917;50.014;8.352;2024-01-27T08:32:35;7.10;99.90
28761;DHT22;15917;50.014;8.352;2024-01-27T08:35:01;7.20;99.90
28761;DHT22;15917;50.014;8.352;2024-01-27T08:37:26;7.60;99.90
28761;DHT22;15917;50.014;8.352;2024-01-27T08:39:52;8.10;99.90
28761;DHT22;15917;50.014;8.352;2024-01-27T08:42:19;8.30;99.90
28761;DHT22;15917;50.014;8.352;2024-01-27T08:44:44;8.20;99.90
28761;DHT22;15917;50.014;8.352;2024-01-27T08:47:10;8.20;99.90
28761;DHT22;15917;50.014;8.352;2024-01-27T08:49:35;8.30;99.90
28761;DHT22;15917;50.014;8.352;2024-01-27T08:52:01;8.40;99.90
28761;DHT22;15917;50.014;8.352;2024-01-27T08:54:28;8.30;99.90
28761;DHT22;15917;50.014;8.352;2024-01-27T08:56:53;8.40;99.90
28761;DHT22;15917;50.014;8.352;2024-01-27T08:59:19;8.60;99.90
28761;DHT22;15917;50.014;8.352;2024-01-27T09:01:44;8.80;99.90
28761;DHT22;15917;50.014;8.352;2024-01-27T09:04:10;8.90;99.90
28761;DHT22;15917;50.014;8.352;2024-01-27T09:06:35;9.00;99.90
28761;DHT22;15917;50.014;8.352;2024-01-27T09:09:01;9.00;99.90
28761;DHT22;15917;50.014;8.352;2024-01-27T09:11:27;9.20;99.90
28761;DHT22;15917;50.014;8.352;2024-01-27T09:13:55;9.30;99.90
28761;DHT22;15917;50.014;8.352;2024-01-27T09:16:21;9.20;99.90
28761;DHT22;15917;50.014;8.352;2024-01-27T09:18:47;9.10;99.90
28761;DHT22;15917;50.014;8.352;2024-01-27T09:21:15;9.10;99.90
28761;DHT22;15917;50.014;8.352;2024-01-27T09:23:49;9.20;99.90
28761;DHT22;15917;50.014;8.352;2024-01-27T09:26:14;9.40;99.90
28761;DHT22;15917;50.014;8.352;2024-01-27T09:28:43;9.50;99.90
28761;DHT22;15917;50.014;8.352;2024-01-27T09:31:10;9.70;99.90
28761;DHT22;15917;50.014;8.352;2024-01-27T09:33:37;9.80;99.90
28761;DHT22;15917;50.014;8.352;2024-01-27T09:36:03;10.00;99.90
28761;DHT22;15917;50.014;8.352;2024-01-27T09:38:29;10.10;99.90
28761;DHT22;15917;50.014;8.352;2024-01-27T09:40:55;10.10;99.90
28761;DHT22;15917;50.014;8.352;2024-01-27T09:43:21;10.20;99.90
28761;DHT22;15917;50.014;8.352;2024-01-27T09:45:47;10.30;99.90
28761;DHT22;15917;50.014;8.352;2024-01-27T09:48:12;10.30;99.90
28761;DHT22;15917;50.014;8.352;2024-01-27T09:50:43;10.30;99.90
28761;DHT22;15917;50.014;8.352;2024-01-27T09:53:09;10.40;99.90
28761;DHT22;15917;50.014;8.352;2024-01-27T09:55:35;10.50;99.90
28761;DHT22;15917;50.014;8.352;2024-01-27T09:58:02;10.50;99.90
28761;DHT22;15917;50.014;8.352;2024-01-27T10:00:29;10.70;99.90
28761;DHT22;15917;50.014;8.352;2024-01-27T10:02:54;10.70;99.90
28761;DHT22;15917;50.014;8.352;2024-01-27T10:05:23;10.90;99.90
28761;DHT22;15917;50.014;8.352;2024-01-27T10:07:49;11.00;99.90
28761;DHT22;15917;50.014;8.352;2024-01-27T10:10:15;11.10;99.90
28761;DHT22;15917;50.014;8.352;2024-01-27T10:12:41;11.30;99.90
28761;DHT22;15917;50.014;8.352;2024-01-27T10:15:21;11.30;99.90
28761;DHT22;15917;50.014;8.352;2024-01-27T10:17:47;11.50;99.90
28761;DHT22;15917;50.014;8.352;2024-01-27T10:20:13;11.90;99.90
28761;DHT22;15917;50.014;8.352;2024-01-27T10:22:41;12.00;99.90
28761;DHT22;15917;50.014;8.352;2024-01-27T10:25:08;11.80;99.90
28761;DHT22;15917;50.014;8.352;2024-01-27T10:27:35;12.00;99.90
28761;DHT22;15917;50.014;8.352;2024-01-27T10:30:01;12.20;99.90
28761;DHT22;15917;50.014;8.352;2024-01-27T10:32:27;12.30;99.90
28761;DHT22;15917;50.014;8.352;2024-01-27T10:35:06;12.20;99.90
28761;DHT22;15917;50.014;8.352;2024-01-27T10:37:34;12.10;99.90
28761;DHT22;15917;50.014;8.352;2024-01-27T10:40:04;12.10;99.90
28761;DHT22;15917;50.014;8.352;2024-01-27T10:42:30;12.20;99.90
28761;DHT22;15917;50.014;8.352;2024-01-27T10:44:59;12.30;99.90
28761;DHT22;15917;50.014;8.352;2024-01-27T10:47:29;12.30;99.90
28761;DHT22;15917;50.014;8.352;2024-01-27T10:49:57;12.30;99.90
28761;DHT22;15917;50.014;8.352;2024-01-27T10:52:30;12.50;99.90
28761;DHT22;15917;50.014;8.352;2024-01-27T10:54:58;12.70;99.90
28761;DHT22;15917;50.014;8.352;2024-01-27T10:57:29;12.70;99.90
28761;DHT22;15917;50.014;8.352;2024-01-27T10:59:56;12.60;99.90
28761;DHT22;15917;50.014;8.352;2024-01-27T11:02:22;12.50;99.90
28761;DHT22;15917;50.014;8.352;2024-01-27T11:04:49;12.00;99.90
28761;DHT22;15917;50.014;8.352;2024-01-27T11:07:20;11.80;99.90
28761;DHT22;15917;50.014;8.352;2024-01-27T11:09:49;12.00;99.90
28761;DHT22;15917;50.014;8.352;2024-01-27T11:12:19;12.20;99.90
28761;DHT22;15917;50.014;8.352;2024-01-27T11:14:50;12.60;99.90
28761;DHT22;15917;50.014;8.352;2024-01-27T11:17:17;12.50;99.90
28761;DHT22;15917;50.014;8.352;2024-01-27T11:19:44;12.10;99.90
28761;DHT22;15917;50.014;8.352;2024-01-27T11:22:24;12.10;99.90
28761;DHT22;15917;50.014;8.352;2024-01-27T11:25:36;11.90;99.90
28761;DHT22;15917;50.014;8.352;2024-01-27T11:27:42;12.10;99.90
28761;DHT22;15917;50.014;8.352;2024-01-27T11:30:27;12.20;99.90
28761;DHT22;15917;50.014;8.352;2024-01-27T11:33:00;12.30;99.90
28761;DHT22;15917;50.014;8.352;2024-01-27T11:35:25;12.30;99.90
28761;DHT22;15917;50.014;8.352;2024-01-27T11:37:52;12.20;99.90
28761;DHT22;15917;50.014;8.352;2024-01-27T11:40:18;12.10;99.90
28761;DHT22;15917;50.014;8.352;2024-01-27T11:42:53;12.20;99.90
28761;DHT22;15917;50.014;8.352;2024-01-27T11:45:18;12.00;99.90
28761;DHT22;15917;50.014;8.352;2024-01-27T11:47:44;12.10;99.90
28761;DHT22;15917;50.014;8.352;2024-01-27T11:50:09;12.20;99.90
28761;DHT22;15917;50.014;8.352;2024-01-27T11:52:36;12.10;99.90
28761;DHT22;15917;50.014;8.352;2024-01-27T11:55:02;12.20;99.90
28761;DHT22;15917;50.014;8.352;2024-01-27T11:57:29;12.30;99.90
28761;DHT22;15917;50.014;8.352;2024-01-27T11:59:55;12.40;99.90
28761;DHT22;15917;50.014;8.352;2024-01-27T12:02:21;12.40;99.90
28761;DHT22;15917;50.014;8.352;2024-01-27T12:04:47;12.20;99.90
28761;DHT22;15917;50.014;8.352;2024-01-27T12:07:14;12.50;99.90
28761;DHT22;15917;50.014;8.352;2024-01-27T12:09:40;12.30;99.90
28761;DHT22;15917;50.014;8.352;2024-01-27T12:12:06;12.50;99.90
28761;DHT22;15917;50.014;8.352;2024-01-27T12:14:40;12.50;99.90
28761;DHT22;15917;50.014;8.352;2024-01-27T12:17:08;12.40;99.90
28761;DHT22;15917;50.014;8.352;2024-01-27T12:19:35;12.60;99.90
28761;DHT22;15917;50.014;8.352;2024-01-27T12:22:02;13.00;99.90
28761;DHT22;15917;50.014;8.352;2024-01-27T12:24:27;12.90;99.90
28761;DHT22;15917;50.014;8.352;2024-01-27T12:26:55;13.30;99.90
28761;DHT22;15917;50.014;8.352;2024-01-27T12:29:22;13.80;99.90
28761;DHT22;15917;50.014;8.352;2024-01-27T12:31:48;13.70;99.90
28761;DHT22;15917;50.014;8.352;2024-01-27T12:34:14;13.70;99.90
28761;DHT22;15917;50.014;8.352;2024-01-27T12:36:43;13.70;99.90
28761;DHT22;15917;50.014;8.352;2024-01-27T12:39:09;13.30;99.90
28761;DHT22;15917;50.014;8.352;2024-01-27T12:41:35;12.70;99.90
28761;DHT22;15917;50.014;8.352;2024-01-27T12:44:01;12.00;99.90
28761;DHT22;15917;50.014;8.352;2024-01-27T12:46:28;11.60;99.90
28761;DHT22;15917;50.014;8.352;2024-01-27T12:48:53;11.50;99.90
28761;DHT22;15917;50.014;8.352;2024-01-27T12:51:20;11.70;99.90
28761;DHT22;15917;50.014;8.352;2024-01-27T12:53:46;11.50;99.90
28761;DHT22;15917;50.014;8.352;2024-01-27T12:56:12;11.30;99.90
28761;DHT22;15917;50.014;8.352;2024-01-27T12:58:38;11.70;99.90
28761;DHT22;15917;50.014;8.352;2024-01-27T13:01:04;12.10;99.90
28761;DHT22;15917;50.014;8.352;2024-01-27T13:03:30;12.10;99.90
28761;DHT22;15917;50.014;8.352;2024-01-27T13:05:56;12.40;99.90
28761;DHT22;15917;50.014;8.352;2024-01-27T13:08:22;12.70;99.90
28761;DHT22;15917;50.014;8.352;2024-01-27T13:10:48;13.00;99.90
28761;DHT22;15917;50.014;8.352;2024-01-27T13:13:14;13.00;99.90
28761;DHT22;15917;50.014;8.352;2024-01-27T13:15:39;12.70;99.90
28761;DHT22;15917;50.014;8.352;2024-01-27T13:18:06;12.70;99.90
28761;DHT22;15917;50.014;8.352;2024-01-27T13:20:31;12.70;99.90
28761;DHT22;15917;50.014;8.352;2024-01-27T13:22:58;12.70;99.90
28761;DHT22;15917;50.014;8.352;2024-01-27T13:25:24;12.60;99.90
28761;DHT22;15917;50.014;8.352;2024-01-27T13:27:50;12.70;99.90
28761;DHT22;15917;50.014;8.352;2024-01-27T13:30:16;12.60;99.90
28761;DHT22;15917;50.014;8.352;2024-01-27T13:32:43;12.30;99.90
28761;DHT22;15917;50.014;8.352;2024-01-27T13:35:09;12.50;99.90
28761;DHT22;15917;50.014;8.352;2024-01-27T13:37:35;12.90;99.90
28761;DHT22;15917;50.014;8.352;2024-01-27T13:40:02;12.80;99.90
28761;DHT22;15917;50.014;8.352;2024-01-27T13:42:29;12.00;99.90
28761;DHT22;15917;50.014;8.352;2024-01-27T13:44:55;11.80;99.90
28761;DHT22;15917;50.014;8.352;2024-01-27T13:47:20;11.60;99.90
28761;DHT22;15917;50.014;8.352;2024-01-27T13:49:46;11.40;99.90
28761;DHT22;15917;50.014;8.352;2024-01-27T13:52:12;10.90;99.90
28761;DHT22;15917;50.014;8.352;2024-01-27T13:54:38;10.80;99.90
28761;DHT22;15917;50.014;8.352;2024-01-27T13:57:04;10.70;99.90
28761;DHT22;15917;50.014;8.352;2024-01-27T13:59:30;10.60;99.90
28761;DHT22;15917;50.014;8.352;2024-01-27T14:01:56;10.60;99.90
28761;DHT22;15917;50.014;8.352;2024-01-27T14:04:23;10.50;99.90
28761;DHT22;15917;50.014;8.352;2024-01-27T14:06:50;10.40;99.90
28761;DHT22;15917;50.014;8.352;2024-01-27T14:09:16;10.40;99.90
28761;DHT22;15917;50.014;8.352;2024-01-27T14:11:43;10.50;99.90
28761;DHT22;15917;50.014;8.352;2024-01-27T14:14:08;10.60;99.90
28761;DHT22;15917;50.014;8.352;2024-01-27T14:16:34;10.50;99.90
28761;DHT22;15917;50.014;8.352;2024-01-27T14:18:59;10.30;99.90
28761;DHT22;15917;50.014;8.352;2024-01-27T14:21:25;10.30;99.90
28761;DHT22;15917;50.014;8.352;2024-01-27T14:23:52;10.20;99.90
28761;DHT22;15917;50.014;8.352;2024-01-27T14:26:27;10.20;99.90
28761;DHT22;15917;50.014;8.352;2024-01-27T14:28:53;10.10;99.90
28761;DHT22;15917;50.014;8.352;2024-01-27T14:31:19;10.10;99.90
28761;DHT22;15917;50.014;8.352;2024-01-27T14:33:45;10.00;99.90
28761;DHT22;15917;50.014;8.352;2024-01-27T14:36:10;9.80;99.90
28761;DHT22;15917;50.014;8.352;2024-01-27T14:38:37;9.60;99.90
28761;DHT22;15917;50.014;8.352;2024-01-27T14:41:02;9.50;99.90
28761;DHT22;15917;50.014;8.352;2024-01-27T14:43:29;9.40;99.90
28761;DHT22;15917;50.014;8.352;2024-01-27T14:45:56;9.30;99.90
28761;DHT22;15917;50.014;8.352;2024-01-27T14:48:21;9.20;99.90
28761;DHT22;15917;50.014;8.352;2024-01-27T14:50:47;9.10;99.90
28761;DHT22;15917;50.014;8.352;2024-01-27T14:53:18;9.00;99.90
28761;DHT22;15917;50.014;8.352;2024-01-27T14:55:44;9.00;99.90
28761;DHT22;15917;50.014;8.352;2024-01-27T14:58:11;9.00;99.90
28761;DHT22;15917;50.014;8.352;2024-01-27T15:00:36;8.90;99.90
28761;DHT22;15917;50.014;8.352;2024-01-27T15:03:05;8.90;99.90
28761;DHT22;15917;50.014;8.352;2024-01-27T15:05:31;8.90;99.90
28761;DHT22;15917;50.014;8.352;2024-01-27T15:08:02;8.80;99.90
28761;DHT22;15917;50.014;8.352;2024-01-27T15:10:27;8.70;99.90
28761;DHT22;15917;50.014;8.352;2024-01-27T15:12:53;8.60;99.90
28761;DHT22;15917;50.014;8.352;2024-01-27T15:15:18;8.60;99.90
28761;DHT22;15917;50.014;8.352;2024-01-27T15:17:44;8.60;99.90
28761;DHT22;15917;50.014;8.352;2024-01-27T15:20:10;8.50;99.90
28761;DHT22;15917;50.014;8.352;2024-01-27T15:22:37;8.50;99.90
28761;DHT22;15917;50.014;8.352;2024-01-27T15:25:03;8.50;99.90
28761;DHT22;15917;50.014;8.352;2024-01-27T15:27:29;8.40;99.90
28761;DHT22;15917;50.014;8.352;2024-01-27T15:29:55;8.30;99.90
28761;DHT22;15917;50.014;8.352;2024-01-27T15:32:20;8.20;99.90
28761;DHT22;15917;50.014;8.352;2024-01-27T15:34:49;8.20;99.90
28761;DHT22;15917;50.014;8.352;2024-01-27T15:37:15;8.10;99.90